sensor_id;sensor_type;location;lat;lon;timestamp;P1;durP1;ratioP1;P2;durP2;ratioP2
44120;SDS011;29783;52.504;13.478;2022-11-20T00:01:50;17.08;;;7.07;;
44120;SDS011;29783;52.504;13.478;2022-11-20T00:04:16;6.80;;;4.22;;
44120;SDS011;29783;52.504;13.478;2022-11-20T00:06:41;15.82;;;8.35;;
44120;SDS011;29783;52.504;13.478;2022-11-20T00:09:09;11.68;;;8.30;;
44120;SDS011;29783;52.504;13.478;2022-11-20T00:11:35;13.73;;;8.88;;
44120;SDS011;29783;52.504;13.478;2022-11-20T00:14:01;11.77;;;8.55;;
44120;SDS011;29783;52.504;13.478;2022-11-20T00:16:28;15.73;;;8.90;;
44120;SDS011;29783;52.504;13.478;2022-11-20T00:18:55;14.07;;;9.27;;
44120;SDS011;29783;52.504;13.478;2022-11-20T00:21:25;14.95;;;9.38;;
44120;SDS011;29783;52.504;13.478;2022-11-20T00:23:52;13.07;;;8.63;;
44120;SDS011;29783;52.504;13.478;2022-11-20T00:26:20;12.18;;;7.60;;
44120;SDS011;29783;52.504;13.478;2022-11-20T00:28:50;9.13;;;6.63;;
44120;SDS011;29783;52.504;13.478;2022-11-20T00:31:17;13.10;;;8.80;;
44120;SDS011;29783;52.504;13.478;2022-11-20T00:33:43;14.43;;;9.93;;
44120;SDS011;29783;52.504;13.478;2022-11-20T00:36:13;14.98;;;8.85;;
44120;SDS011;29783;52.504;13.478;2022-11-20T00:38:41;12.63;;;7.45;;
44120;SDS011;29783;52.504;13.478;2022-11-20T00:41:08;12.82;;;8.13;;
44120;SDS011;29783;52.504;13.478;2022-11-20T00:43:34;16.35;;;8.98;;
44120;SDS011;29783;52.504;13.478;2022-11-20T00:46:10;12.55;;;8.90;;
44120;SDS011;29783;52.504;13.478;2022-11-20T00:48:41;13.48;;;9.40;;
44120;SDS011;29783;52.504;13.478;2022-11-20T00:51:07;11.77;;;8.52;;
44120;SDS011;29783;52.504;13.478;2022-11-20T00:53:33;10.13;;;7.63;;
44120;SDS011;29783;52.504;13.478;2022-11-20T00:56:04;12.57;;;8.25;;
44120;SDS011;29783;52.504;13.478;2022-11-20T00:58:36;15.10;;;9.90;;
44120;SDS011;29783;52.504;13.478;2022-11-20T01:01:04;12.95;;;6.85;;
44120;SDS011;29783;52.504;13.478;2022-11-20T01:03:34;13.98;;;8.25;;
44120;SDS011;29783;52.504;13.478;2022-11-20T01:06:05;16.52;;;8.23;;
44120;SDS011;29783;52.504;13.478;2022-11-20T01:08:33;8.80;;;6.65;;
44120;SDS011;29783;52.504;13.478;2022-11-20T01:11:03;16.90;;;7.38;;
44120;SDS011;29783;52.504;13.478;2022-11-20T01:13:31;14.85;;;9.40;;
44120;SDS011;29783;52.504;13.478;2022-11-20T01:16:14;8.80;;;6.30;;
44120;SDS011;29783;52.504;13.478;2022-11-20T01:18:42;14.20;;;7.68;;
44120;SDS011;29783;52.504;13.478;2022-11-20T01:21:15;14.27;;;9.23;;
44120;SDS011;29783;52.504;13.478;2022-11-20T01:23:43;18.80;;;9.55;;
44120;SDS011;29783;52.504;13.478;2022-11-20T01:26:10;11.52;;;6.97;;
44120;SDS011;29783;52.504;13.478;2022-11-20T01:28:38;14.70;;;8.98;;
44120;SDS011;29783;52.504;13.478;2022-11-20T01:31:15;14.55;;;7.93;;
44120;SDS011;29783;52.504;13.478;2022-11-20T01:33:43;14.23;;;8.63;;
44120;SDS011;29783;52.504;13.478;2022-11-20T01:36:09;11.65;;;8.65;;
44120;SDS011;29783;52.504;13.478;2022-11-20T01:38:36;14.32;;;8.75;;
44120;SDS011;29783;52.504;13.478;2022-11-20T01:41:02;14.10;;;9.90;;
44120;SDS011;29783;52.504;13.478;2022-11-20T01:43:28;19.52;;;9.85;;
44120;SDS011;29783;52.504;13.478;2022-11-20T01:51:33;16.90;;;9.98;;
44120;SDS011;29783;52.504;13.478;2022-11-20T01:54:14;13.90;;;8.77;;
44120;SDS011;29783;52.504;13.478;2022-11-20T01:57:13;14.05;;;9.30;;
44120;SDS011;29783;52.504;13.478;2022-11-20T02:00:29;13.10;;;9.60;;
44120;SDS011;29783;52.504;13.478;2022-11-20T02:27:06;11.45;;;8.45;;
44120;SDS011;29783;52.504;13.478;2022-11-20T02:32:40;14.82;;;9.90;;
44120;SDS011;29783;52.504;13.478;2022-11-20T02:35:43;13.37;;;9.20;;
44120;SDS011;29783;52.504;13.478;2022-11-20T02:38:32;8.85;;;5.80;;
44120;SDS011;29783;52.504;13.478;2022-11-20T02:45:08;18.08;;;9.25;;
44120;SDS011;29783;52.504;13.478;2022-11-20T02:47:49;12.50;;;8.57;;
44120;SDS011;29783;52.504;13.478;2022-11-20T02:50:25;15.40;;;8.15;;
44120;SDS011;29783;52.504;13.478;2022-11-20T02:53:17;16.20;;;9.45;;
44120;SDS011;29783;52.504;13.478;2022-11-20T02:56:09;12.27;;;7.45;;
44120;SDS011;29783;52.504;13.478;2022-11-20T03:02:59;6.15;;;4.78;;
44120;SDS011;29783;52.504;13.478;2022-11-20T03:43:27;14.82;;;8.73;;
44120;SDS011;29783;52.504;13.478;2022-11-20T03:46:38;13.57;;;8.65;;
44120;SDS011;29783;52.504;13.478;2022-11-20T04:06:36;16.38;;;9.00;;
44120;SDS011;29783;52.504;13.478;2022-11-20T04:09:33;17.20;;;10.20;;
44120;SDS011;29783;52.504;13.478;2022-11-20T04:22:35;17.73;;;10.18;;
44120;SDS011;29783;52.504;13.478;2022-11-20T04:25:33;18.48;;;10.68;;
44120;SDS011;29783;52.504;13.478;2022-11-20T04:49:09;15.80;;;9.05;;
44120;SDS011;29783;52.504;13.478;2022-11-20T05:09:09;15.10;;;9.07;;
44120;SDS011;29783;52.504;13.478;2022-11-20T05:19:13;15.18;;;9.77;;
44120;SDS011;29783;52.504;13.478;2022-11-20T05:22:19;21.00;;;11.13;;
44120;SDS011;29783;52.504;13.478;2022-11-20T05:35:20;17.02;;;10.90;;
44120;SDS011;29783;52.504;13.478;2022-11-20T05:38:11;20.23;;;10.25;;
44120;SDS011;29783;52.504;13.478;2022-11-20T05:41:16;14.30;;;8.95;;
44120;SDS011;29783;52.504;13.478;2022-11-20T05:43:57;13.50;;;7.72;;
44120;SDS011;29783;52.504;13.478;2022-11-20T05:46:50;15.40;;;9.07;;
44120;SDS011;29783;52.504;13.478;2022-11-20T06:12:31;15.13;;;9.93;;
44120;SDS011;29783;52.504;13.478;2022-11-20T06:15:06;13.27;;;9.57;;
44120;SDS011;29783;52.504;13.478;2022-11-20T06:21:37;14.55;;;9.95;;
44120;SDS011;29783;52.504;13.478;2022-11-20T06:28:38;15.55;;;10.35;;
44120;SDS011;29783;52.504;13.478;2022-11-20T06:35:28;15.60;;;8.98;;
44120;SDS011;29783;52.504;13.478;2022-11-20T06:38:39;15.07;;;9.65;;
44120;SDS011;29783;52.504;13.478;2022-11-20T06:41:25;17.95;;;10.25;;
44120;SDS011;29783;52.504;13.478;2022-11-20T06:44:20;16.00;;;9.23;;
44120;SDS011;29783;52.504;13.478;2022-11-20T06:50:58;15.05;;;10.40;;
44120;SDS011;29783;52.504;13.478;2022-11-20T06:53:31;15.32;;;10.48;;
44120;SDS011;29783;52.504;13.478;2022-11-20T06:56:17;14.82;;;10.40;;
44120;SDS011;29783;52.504;13.478;2022-11-20T06:59:07;16.25;;;11.10;;
44120;SDS011;29783;52.504;13.478;2022-11-20T07:04:58;14.32;;;9.77;;
44120;SDS011;29783;52.504;13.478;2022-11-20T07:17:45;15.88;;;10.00;;
44120;SDS011;29783;52.504;13.478;2022-11-20T07:20:25;17.45;;;11.48;;
44120;SDS011;29783;52.504;13.478;2022-11-20T07:43:08;17.73;;;10.68;;
44120;SDS011;29783;52.504;13.478;2022-11-20T07:57:22;15.18;;;10.43;;
44120;SDS011;29783;52.504;13.478;2022-11-20T08:03:54;18.30;;;11.25;;
44120;SDS011;29783;52.504;13.478;2022-11-20T08:16:54;16.30;;;9.90;;
44120;SDS011;29783;52.504;13.478;2022-11-20T08:26:59;17.92;;;10.88;;
44120;SDS011;29783;52.504;13.478;2022-11-20T08:37:09;20.52;;;11.02;;
44120;SDS011;29783;52.504;13.478;2022-11-20T08:39:44;15.85;;;11.05;;
44120;SDS011;29783;52.504;13.478;2022-11-20T08:42:36;17.33;;;10.70;;
44120;SDS011;29783;52.504;13.478;2022-11-20T08:46:06;18.02;;;10.50;;
44120;SDS011;29783;52.504;13.478;2022-11-20T08:49:04;21.40;;;11.90;;
44120;SDS011;29783;52.504;13.478;2022-11-20T08:51:59;19.05;;;10.70;;
44120;SDS011;29783;52.504;13.478;2022-11-20T08:54:57;13.27;;;8.60;;
44120;SDS011;29783;52.504;13.478;2022-11-20T08:57:49;13.05;;;8.88;;
44120;SDS011;29783;52.504;13.478;2022-11-20T09:04:20;15.23;;;10.23;;
44120;SDS011;29783;52.504;13.478;2022-11-20T09:20:32;14.27;;;9.75;;
44120;SDS011;29783;52.504;13.478;2022-11-20T09:23:24;15.55;;;11.43;;
44120;SDS011;29783;52.504;13.478;2022-11-20T09:54:55;14.82;;;10.55;;
44120;SDS011;29783;52.504;13.478;2022-11-20T09:57:23;15.65;;;10.18;;
44120;SDS011;29783;52.504;13.478;2022-11-20T09:59:56;10.43;;;6.75;;
44120;SDS011;29783;52.504;13.478;2022-11-20T10:02:30;14.75;;;10.40;;
44120;SDS011;29783;52.504;13.478;2022-11-20T10:24:37;12.18;;;7.25;;
44120;SDS011;29783;52.504;13.478;2022-11-20T10:30:17;17.05;;;9.48;;
44120;SDS011;29783;52.504;13.478;2022-11-20T10:32:47;15.85;;;7.80;;
44120;SDS011;29783;52.504;13.478;2022-11-20T10:35:25;15.15;;;9.23;;
44120;SDS011;29783;52.504;13.478;2022-11-20T10:38:14;10.10;;;6.88;;
44120;SDS011;29783;52.504;13.478;2022-11-20T10:40:46;11.55;;;7.85;;
44120;SDS011;29783;52.504;13.478;2022-11-20T10:43:21;13.55;;;8.98;;
44120;SDS011;29783;52.504;13.478;2022-11-20T10:45:58;18.42;;;9.50;;
44120;SDS011;29783;52.504;13.478;2022-11-20T10:48:50;16.20;;;10.23;;
44120;SDS011;29783;52.504;13.478;2022-11-20T10:54:52;12.15;;;8.18;;
44120;SDS011;29783;52.504;13.478;2022-11-20T11:02:37;12.88;;;7.65;;
44120;SDS011;29783;52.504;13.478;2022-11-20T11:05:11;12.85;;;7.75;;
44120;SDS011;29783;52.504;13.478;2022-11-20T11:07:38;15.35;;;10.32;;
44120;SDS011;29783;52.504;13.478;2022-11-20T11:13:06;13.70;;;8.45;;
44120;SDS011;29783;52.504;13.478;2022-11-20T11:15:39;15.52;;;8.98;;
44120;SDS011;29783;52.504;13.478;2022-11-20T11:18:22;14.07;;;9.80;;
44120;SDS011;29783;52.504;13.478;2022-11-20T11:20:55;14.35;;;8.18;;
44120;SDS011;29783;52.504;13.478;2022-11-20T11:23:42;12.85;;;8.90;;
44120;SDS011;29783;52.504;13.478;2022-11-20T11:26:18;15.57;;;9.35;;
44120;SDS011;29783;52.504;13.478;2022-11-20T11:28:53;12.32;;;8.32;;
44120;SDS011;29783;52.504;13.478;2022-11-20T11:31:24;12.50;;;8.13;;
44120;SDS011;29783;52.504;13.478;2022-11-20T11:33:49;14.70;;;8.90;;
44120;SDS011;29783;52.504;13.478;2022-11-20T11:36:22;9.48;;;6.53;;
44120;SDS011;29783;52.504;13.478;2022-11-20T11:38:51;14.85;;;8.65;;
44120;SDS011;29783;52.504;13.478;2022-11-20T11:41:20;16.90;;;10.30;;
44120;SDS011;29783;52.504;13.478;2022-11-20T11:57:28;17.33;;;7.55;;
44120;SDS011;29783;52.504;13.478;2022-11-20T12:00:20;11.10;;;6.72;;
44120;SDS011;29783;52.504;13.478;2022-11-20T12:10:03;13.52;;;8.10;;
44120;SDS011;29783;52.504;13.478;2022-11-20T12:15:41;12.68;;;9.23;;
44120;SDS011;29783;52.504;13.478;2022-11-20T12:52:53;19.80;;;8.65;;
44120;SDS011;29783;52.504;13.478;2022-11-20T13:26:22;7.85;;;5.50;;
44120;SDS011;29783;52.504;13.478;2022-11-20T14:10:50;7.43;;;4.68;;
44120;SDS011;29783;52.504;13.478;2022-11-20T14:24:18;9.75;;;5.00;;
44120;SDS011;29783;52.504;13.478;2022-11-20T14:26:45;10.85;;;5.38;;
44120;SDS011;29783;52.504;13.478;2022-11-20T14:29:23;12.05;;;6.05;;
44120;SDS011;29783;52.504;13.478;2022-11-20T14:31:55;10.60;;;5.15;;
44120;SDS011;29783;52.504;13.478;2022-11-20T14:34:23;6.95;;;3.38;;
44120;SDS011;29783;52.504;13.478;2022-11-20T14:36:52;7.30;;;5.40;;
44120;SDS011;29783;52.504;13.478;2022-11-20T14:39:36;11.13;;;5.78;;
44120;SDS011;29783;52.504;13.478;2022-11-20T14:42:15;8.40;;;4.65;;
44120;SDS011;29783;52.504;13.478;2022-11-20T14:44:43;9.25;;;5.93;;
44120;SDS011;29783;52.504;13.478;2022-11-20T14:47:10;9.43;;;5.55;;
44120;SDS011;29783;52.504;13.478;2022-11-20T14:49:38;9.20;;;5.70;;
44120;SDS011;29783;52.504;13.478;2022-11-20T14:52:14;8.73;;;5.75;;
44120;SDS011;29783;52.504;13.478;2022-11-20T14:54:46;11.52;;;6.00;;
44120;SDS011;29783;52.504;13.478;2022-11-20T14:57:27;9.10;;;5.00;;
44120;SDS011;29783;52.504;13.478;2022-11-20T15:00:18;6.05;;;4.50;;
44120;SDS011;29783;52.504;13.478;2022-11-20T15:02:47;5.65;;;3.75;;
44120;SDS011;29783;52.504;13.478;2022-11-20T15:05:15;9.27;;;5.85;;
44120;SDS011;29783;52.504;13.478;2022-11-20T15:07:45;7.55;;;5.55;;
44120;SDS011;29783;52.504;13.478;2022-11-20T15:10:26;9.02;;;5.22;;
44120;SDS011;29783;52.504;13.478;2022-11-20T15:12:59;10.18;;;4.90;;
44120;SDS011;29783;52.504;13.478;2022-11-20T15:15:31;6.05;;;4.28;;
44120;SDS011;29783;52.504;13.478;2022-11-20T15:18:13;8.88;;;5.43;;
44120;SDS011;29783;52.504;13.478;2022-11-20T15:20:41;13.77;;;5.85;;
44120;SDS011;29783;52.504;13.478;2022-11-20T15:23:12;10.60;;;5.43;;
44120;SDS011;29783;52.504;13.478;2022-11-20T15:25:40;12.60;;;5.97;;
44120;SDS011;29783;52.504;13.478;2022-11-20T15:28:20;8.52;;;6.18;;
44120;SDS011;29783;52.504;13.478;2022-11-20T15:30:52;10.32;;;6.72;;
44120;SDS011;29783;52.504;13.478;2022-11-20T15:33:18;10.60;;;5.88;;
44120;SDS011;29783;52.504;13.478;2022-11-20T15:35:44;11.25;;;7.47;;
44120;SDS011;29783;52.504;13.478;2022-11-20T15:38:10;8.23;;;5.35;;
44120;SDS011;29783;52.504;13.478;2022-11-20T15:40:36;10.32;;;6.22;;
44120;SDS011;29783;52.504;13.478;2022-11-20T15:43:01;10.00;;;5.82;;
44120;SDS011;29783;52.504;13.478;2022-11-20T15:45:28;6.13;;;4.35;;
44120;SDS011;29783;52.504;13.478;2022-11-20T15:47:58;3.25;;;2.55;;
44120;SDS011;29783;52.504;13.478;2022-11-20T15:50:27;12.23;;;6.43;;
44120;SDS011;29783;52.504;13.478;2022-11-20T15:52:59;9.02;;;6.07;;
44120;SDS011;29783;52.504;13.478;2022-11-20T15:55:25;8.88;;;5.93;;
44120;SDS011;29783;52.504;13.478;2022-11-20T15:57:51;9.27;;;5.47;;
44120;SDS011;29783;52.504;13.478;2022-11-20T16:00:17;10.60;;;7.07;;
44120;SDS011;29783;52.504;13.478;2022-11-20T16:02:43;11.77;;;6.72;;
44120;SDS011;29783;52.504;13.478;2022-11-20T16:05:10;8.30;;;5.18;;
44120;SDS011;29783;52.504;13.478;2022-11-20T16:07:37;11.40;;;6.82;;
44120;SDS011;29783;52.504;13.478;2022-11-20T16:10:03;11.85;;;7.63;;
44120;SDS011;29783;52.504;13.478;2022-11-20T16:12:29;8.77;;;5.95;;
44120;SDS011;29783;52.504;13.478;2022-11-20T16:15:13;14.37;;;8.10;;
44120;SDS011;29783;52.504;13.478;2022-11-20T16:18:06;9.65;;;6.18;;
44120;SDS011;29783;52.504;13.478;2022-11-20T16:20:33;12.15;;;8.20;;
44120;SDS011;29783;52.504;13.478;2022-11-20T16:22:59;14.77;;;8.82;;
44120;SDS011;29783;52.504;13.478;2022-11-20T16:25:26;14.52;;;7.30;;
44120;SDS011;29783;52.504;13.478;2022-11-20T16:27:52;12.02;;;7.93;;
44120;SDS011;29783;52.504;13.478;2022-11-20T16:30:18;9.82;;;6.78;;
44120;SDS011;29783;52.504;13.478;2022-11-20T16:32:44;11.63;;;6.53;;
44120;SDS011;29783;52.504;13.478;2022-11-20T16:35:10;13.80;;;7.38;;
44120;SDS011;29783;52.504;13.478;2022-11-20T16:37:36;16.45;;;8.77;;
44120;SDS011;29783;52.504;13.478;2022-11-20T16:40:02;11.30;;;7.03;;
44120;SDS011;29783;52.504;13.478;2022-11-20T16:42:29;9.52;;;6.45;;
44120;SDS011;29783;52.504;13.478;2022-11-20T16:44:58;11.52;;;6.97;;
44120;SDS011;29783;52.504;13.478;2022-11-20T16:47:24;7.43;;;5.75;;
44120;SDS011;29783;52.504;13.478;2022-11-20T16:49:50;14.05;;;7.72;;
44120;SDS011;29783;52.504;13.478;2022-11-20T16:52:16;10.32;;;6.72;;
44120;SDS011;29783;52.504;13.478;2022-11-20T16:54:42;16.75;;;8.18;;
44120;SDS011;29783;52.504;13.478;2022-11-20T16:57:10;9.75;;;6.13;;
44120;SDS011;29783;52.504;13.478;2022-11-20T16:59:36;11.20;;;6.93;;
44120;SDS011;29783;52.504;13.478;2022-11-20T17:02:02;11.45;;;7.20;;
44120;SDS011;29783;52.504;13.478;2022-11-20T17:04:28;10.48;;;6.95;;
44120;SDS011;29783;52.504;13.478;2022-11-20T17:06:54;11.23;;;7.57;;
44120;SDS011;29783;52.504;13.478;2022-11-20T17:09:20;12.68;;;8.10;;
44120;SDS011;29783;52.504;13.478;2022-11-20T17:11:49;18.48;;;7.95;;
44120;SDS011;29783;52.504;13.478;2022-11-20T17:14:15;13.68;;;7.47;;
44120;SDS011;29783;52.504;13.478;2022-11-20T17:16:40;12.05;;;7.57;;
44120;SDS011;29783;52.504;13.478;2022-11-20T17:19:06;12.20;;;7.00;;
44120;SDS011;29783;52.504;13.478;2022-11-20T17:21:33;11.93;;;7.30;;
44120;SDS011;29783;52.504;13.478;2022-11-20T17:24:03;11.13;;;6.97;;
44120;SDS011;29783;52.504;13.478;2022-11-20T17:26:33;13.55;;;6.90;;
44120;SDS011;29783;52.504;13.478;2022-11-20T17:29:01;12.48;;;6.20;;
44120;SDS011;29783;52.504;13.478;2022-11-20T17:31:37;12.95;;;6.72;;
44120;SDS011;29783;52.504;13.478;2022-11-20T17:34:05;15.00;;;7.50;;
44120;SDS011;29783;52.504;13.478;2022-11-20T17:36:32;11.77;;;7.32;;
44120;SDS011;29783;52.504;13.478;2022-11-20T17:38:58;17.80;;;8.07;;
44120;SDS011;29783;52.504;13.478;2022-11-20T17:41:25;13.95;;;8.52;;
44120;SDS011;29783;52.504;13.478;2022-11-20T17:43:56;15.63;;;9.50;;
44120;SDS011;29783;52.504;13.478;2022-11-20T17:46:24;13.50;;;7.93;;
44120;SDS011;29783;52.504;13.478;2022-11-20T17:48:51;14.00;;;7.90;;
44120;SDS011;29783;52.504;13.478;2022-11-20T17:51:21;15.65;;;8.27;;
44120;SDS011;29783;52.504;13.478;2022-11-20T17:53:50;14.32;;;8.90;;
44120;SDS011;29783;52.504;13.478;2022-11-20T17:56:17;19.15;;;8.25;;
44120;SDS011;29783;52.504;13.478;2022-11-20T17:59:05;13.98;;;8.25;;
44120;SDS011;29783;52.504;13.478;2022-11-20T18:01:32;11.88;;;7.30;;
44120;SDS011;29783;52.504;13.478;2022-11-20T18:03:59;10.57;;;6.55;;
44120;SDS011;29783;52.504;13.478;2022-11-20T18:06:25;20.75;;;7.75;;
44120;SDS011;29783;52.504;13.478;2022-11-20T18:08:52;11.27;;;7.70;;
44120;SDS011;29783;52.504;13.478;2022-11-20T18:11:19;13.95;;;7.63;;
44120;SDS011;29783;52.504;13.478;2022-11-20T18:13:53;12.68;;;7.85;;
44120;SDS011;29783;52.504;13.478;2022-11-20T18:26:12;11.05;;;7.22;;
44120;SDS011;29783;52.504;13.478;2022-11-20T18:28:38;15.02;;;8.38;;
44120;SDS011;29783;52.504;13.478;2022-11-20T18:31:19;13.55;;;7.65;;
44120;SDS011;29783;52.504;13.478;2022-11-20T18:41:12;17.52;;;7.78;;
44120;SDS011;29783;52.504;13.478;2022-11-20T18:43:57;15.73;;;7.43;;
44120;SDS011;29783;52.504;13.478;2022-11-20T18:46:55;14.70;;;7.25;;
44120;SDS011;29783;52.504;13.478;2022-11-20T18:49:39;13.48;;;8.35;;
44120;SDS011;29783;52.504;13.478;2022-11-20T18:52:27;12.40;;;7.68;;
44120;SDS011;29783;52.504;13.478;2022-11-20T18:54:55;10.98;;;7.00;;
44120;SDS011;29783;52.504;13.478;2022-11-20T18:57:25;14.57;;;7.78;;
44120;SDS011;29783;52.504;13.478;2022-11-20T18:59:55;11.05;;;7.07;;
44120;SDS011;29783;52.504;13.478;2022-11-20T19:02:32;12.77;;;6.28;;
44120;SDS011;29783;52.504;13.478;2022-11-20T19:05:06;10.50;;;6.60;;
44120;SDS011;29783;52.504;13.478;2022-11-20T19:07:38;11.75;;;7.43;;
44120;SDS011;29783;52.504;13.478;2022-11-20T19:10:19;10.13;;;6.72;;
44120;SDS011;29783;52.504;13.478;2022-11-20T19:13:10;10.52;;;6.53;;
44120;SDS011;29783;52.504;13.478;2022-11-20T19:18:32;11.93;;;7.30;;
44120;SDS011;29783;52.504;13.478;2022-11-20T19:21:07;11.25;;;7.68;;
44120;SDS011;29783;52.504;13.478;2022-11-20T19:23:42;10.32;;;6.82;;
44120;SDS011;29783;52.504;13.478;2022-11-20T19:26:11;13.82;;;8.13;;
44120;SDS011;29783;52.504;13.478;2022-11-20T19:28:37;10.57;;;6.50;;
44120;SDS011;29783;52.504;13.478;2022-11-20T19:31:05;14.50;;;7.57;;
44120;SDS011;29783;52.504;13.478;2022-11-20T19:33:33;12.20;;;6.25;;
44120;SDS011;29783;52.504;13.478;2022-11-20T19:36:19;12.93;;;5.40;;
44120;SDS011;29783;52.504;13.478;2022-11-20T19:38:47;11.48;;;5.70;;
44120;SDS011;29783;52.504;13.478;2022-11-20T19:41:17;9.75;;;6.63;;
44120;SDS011;29783;52.504;13.478;2022-11-20T19:43:45;12.23;;;7.80;;
44120;SDS011;29783;52.504;13.478;2022-11-20T19:46:16;17.17;;;8.32;;
44120;SDS011;29783;52.504;13.478;2022-11-20T19:48:44;14.15;;;8.43;;
44120;SDS011;29783;52.504;13.478;2022-11-20T19:51:10;13.02;;;7.97;;
44120;SDS011;29783;52.504;13.478;2022-11-20T19:53:41;13.80;;;7.35;;
44120;SDS011;29783;52.504;13.478;2022-11-20T19:56:07;12.75;;;7.85;;
44120;SDS011;29783;52.504;13.478;2022-11-20T19:58:33;11.77;;;7.30;;
44120;SDS011;29783;52.504;13.478;2022-11-20T20:01:09;13.18;;;7.13;;
44120;SDS011;29783;52.504;13.478;2022-11-20T20:03:37;14.00;;;8.85;;
44120;SDS011;29783;52.504;13.478;2022-11-20T20:06:04;12.00;;;7.88;;
44120;SDS011;29783;52.504;13.478;2022-11-20T20:08:31;14.38;;;7.38;;
44120;SDS011;29783;52.504;13.478;2022-11-20T20:10:57;13.93;;;8.60;;
44120;SDS011;29783;52.504;13.478;2022-11-20T20:13:23;12.85;;;8.07;;
44120;SDS011;29783;52.504;13.478;2022-11-20T20:15:50;15.48;;;8.05;;
44120;SDS011;29783;52.504;13.478;2022-11-20T20:18:17;13.93;;;7.88;;
44120;SDS011;29783;52.504;13.478;2022-11-20T20:20:42;14.25;;;7.95;;
44120;SDS011;29783;52.504;13.478;2022-11-20T20:23:08;18.00;;;8.95;;
44120;SDS011;29783;52.504;13.478;2022-11-20T20:25:34;16.65;;;8.60;;
44120;SDS011;29783;52.504;13.478;2022-11-20T20:28:03;13.90;;;8.25;;
44120;SDS011;29783;52.504;13.478;2022-11-20T20:30:29;17.52;;;8.38;;
44120;SDS011;29783;52.504;13.478;2022-11-20T20:32:55;13.48;;;8.77;;
44120;SDS011;29783;52.504;13.478;2022-11-20T20:35:21;13.13;;;8.50;;
44120;SDS011;29783;52.504;13.478;2022-11-20T20:37:46;19.70;;;8.20;;
44120;SDS011;29783;52.504;13.478;2022-11-20T20:40:12;17.65;;;8.50;;
44120;SDS011;29783;52.504;13.478;2022-11-20T20:42:38;13.07;;;8.60;;
44120;SDS011;29783;52.504;13.478;2022-11-20T20:45:04;14.45;;;8.43;;
44120;SDS011;29783;52.504;13.478;2022-11-20T20:47:30;12.38;;;8.15;;
44120;SDS011;29783;52.504;13.478;2022-11-20T20:50:00;11.50;;;7.22;;
44120;SDS011;29783;52.504;13.478;2022-11-20T20:52:27;12.65;;;8.27;;
44120;SDS011;29783;52.504;13.478;2022-11-20T20:54:53;10.85;;;7.75;;
44120;SDS011;29783;52.504;13.478;2022-11-20T20:57:20;17.05;;;7.82;;
44120;SDS011;29783;52.504;13.478;2022-11-20T20:59:47;11.38;;;8.07;;
44120;SDS011;29783;52.504;13.478;2022-11-20T21:02:18;14.80;;;8.05;;
44120;SDS011;29783;52.504;13.478;2022-11-20T21:04:44;11.07;;;7.57;;
44120;SDS011;29783;52.504;13.478;2022-11-20T21:07:10;12.38;;;8.38;;
44120;SDS011;29783;52.504;13.478;2022-11-20T21:09:36;15.50;;;8.50;;
44120;SDS011;29783;52.504;13.478;2022-11-20T21:12:01;13.88;;;8.18;;
44120;SDS011;29783;52.504;13.478;2022-11-20T21:14:27;11.82;;;8.25;;
44120;SDS011;29783;52.504;13.478;2022-11-20T21:16:53;15.45;;;7.97;;
44120;SDS011;29783;52.504;13.478;2022-11-20T21:19:19;14.90;;;8.40;;
44120;SDS011;29783;52.504;13.478;2022-11-20T21:21:47;13.40;;;8.30;;
44120;SDS011;29783;52.504;13.478;2022-11-20T21:24:34;12.75;;;8.43;;
44120;SDS011;29783;52.504;13.478;2022-11-20T21:27:02;11.73;;;8.88;;
44120;SDS011;29783;52.504;13.478;2022-11-20T21:29:39;12.60;;;8.45;;
44120;SDS011;29783;52.504;13.478;2022-11-20T21:34:47;11.90;;;8.32;;
44120;SDS011;29783;52.504;13.478;2022-11-20T21:37:14;20.67;;;8.57;;
44120;SDS011;29783;52.504;13.478;2022-11-20T21:39:46;15.05;;;9.93;;
44120;SDS011;29783;52.504;13.478;2022-11-20T21:42:24;12.65;;;9.57;;
44120;SDS011;29783;52.504;13.478;2022-11-20T21:44:58;16.30;;;10.43;;
44120;SDS011;29783;52.504;13.478;2022-11-20T21:47:26;13.82;;;10.00;;
44120;SDS011;29783;52.504;13.478;2022-11-20T21:49:53;16.67;;;10.95;;
44120;SDS011;29783;52.504;13.478;2022-11-20T21:52:19;14.63;;;10.13;;
44120;SDS011;29783;52.504;13.478;2022-11-20T21:54:45;19.45;;;10.77;;
44120;SDS011;29783;52.504;13.478;2022-11-20T21:57:18;18.70;;;10.27;;
44120;SDS011;29783;52.504;13.478;2022-11-20T21:59:44;18.60;;;11.18;;
44120;SDS011;29783;52.504;13.478;2022-11-20T22:02:12;20.17;;;11.25;;
44120;SDS011;29783;52.504;13.478;2022-11-20T22:04:39;17.55;;;11.02;;
44120;SDS011;29783;52.504;13.478;2022-11-20T22:07:07;24.73;;;13.65;;
44120;SDS011;29783;52.504;13.478;2022-11-20T22:09:34;25.23;;;15.57;;
44120;SDS011;29783;52.504;13.478;2022-11-20T22:12:02;24.35;;;14.05;;
44120;SDS011;29783;52.504;13.478;2022-11-20T22:14:32;25.65;;;14.15;;
44120;SDS011;29783;52.504;13.478;2022-11-20T22:17:02;19.80;;;12.25;;
44120;SDS011;29783;52.504;13.478;2022-11-20T22:19:36;25.25;;;12.82;;
44120;SDS011;29783;52.504;13.478;2022-11-20T22:22:05;21.35;;;12.52;;
44120;SDS011;29783;52.504;13.478;2022-11-20T22:27:52;18.52;;;12.00;;
44120;SDS011;29783;52.504;13.478;2022-11-20T22:30:21;20.50;;;11.10;;
44120;SDS011;29783;52.504;13.478;2022-11-20T22:32:47;19.77;;;13.20;;
44120;SDS011;29783;52.504;13.478;2022-11-20T22:35:18;21.15;;;13.23;;
44120;SDS011;29783;52.504;13.478;2022-11-20T22:37:47;18.95;;;12.48;;
44120;SDS011;29783;52.504;13.478;2022-11-20T22:40:13;19.02;;;13.73;;
44120;SDS011;29783;52.504;13.478;2022-11-20T22:42:44;23.08;;;16.02;;
44120;SDS011;29783;52.504;13.478;2022-11-20T22:45:14;30.27;;;15.63;;
44120;SDS011;29783;52.504;13.478;2022-11-20T22:47:40;26.55;;;14.38;;
44120;SDS011;29783;52.504;13.478;2022-11-20T22:50:11;23.67;;;14.80;;
44120;SDS011;29783;52.504;13.478;2022-11-20T22:52:37;21.08;;;14.48;;
44120;SDS011;29783;52.504;13.478;2022-11-20T22:55:06;24.20;;;15.35;;
44120;SDS011;29783;52.504;13.478;2022-11-20T22:57:44;28.65;;;16.88;;
44120;SDS011;29783;52.504;13.478;2022-11-20T23:00:10;24.08;;;15.40;;
44120;SDS011;29783;52.504;13.478;2022-11-20T23:02:42;24.20;;;16.17;;
44120;SDS011;29783;52.504;13.478;2022-11-20T23:05:08;23.17;;;16.25;;
44120;SDS011;29783;52.504;13.478;2022-11-20T23:07:35;23.08;;;16.67;;
44120;SDS011;29783;52.504;13.478;2022-11-20T23:10:01;24.10;;;16.60;;
44120;SDS011;29783;52.504;13.478;2022-11-20T23:12:33;29.00;;;17.13;;
44120;SDS011;29783;52.504;13.478;2022-11-20T23:15:05;22.52;;;15.88;;
44120;SDS011;29783;52.504;13.478;2022-11-20T23:17:31;29.23;;;18.60;;
44120;SDS011;29783;52.504;13.478;2022-11-20T23:19:58;28.58;;;18.73;;
44120;SDS011;29783;52.504;13.478;2022-11-20T23:22:32;28.55;;;17.55;;
44120;SDS011;29783;52.504;13.478;2022-11-20T23:25:03;24.35;;;17.08;;
44120;SDS011;29783;52.504;13.478;2022-11-20T23:27:40;25.60;;;17.75;;
44120;SDS011;29783;52.504;13.478;2022-11-20T23:30:12;29.17;;;17.70;;
44120;SDS011;29783;52.504;13.478;2022-11-20T23:32:46;25.25;;;17.52;;
44120;SDS011;29783;52.504;13.478;2022-11-20T23:35:15;25.23;;;16.65;;
44120;SDS011;29783;52.504;13.478;2022-11-20T23:37:41;27.75;;;17.02;;
44120;SDS011;29783;52.504;13.478;2022-11-20T23:40:10;24.13;;;15.82;;